Time;durP1;ratioP1;P1;durP2;ratioP2;P2;SDS_P1;SDS_P2;PMS_P1;PMS_P2;Temp;Humidity;BMP_temperature;BMP_pressure;BME280_temperature;BME280_humidity;BME280_pressure;Samples;Min_cycle;Max_cycle;Signal;HPM_P1;HPM_P2
2021/11/06 00:01:48;;;;;;;11.33;6.75;;;;;;;14.49;62.82;100929.18;1777054;78;21050;-58
2021/11/06 00:04:15;;;;;;;9.85;6.65;;;;;;;14.44;62.99;100928.75;1744208;79;21058;-59
2021/11/06 00:06:44;;;;;;;11.33;6.70;;;;;;;14.37;63.14;100935.06;1779582;78;21038;-59
2021/11/06 00:09:12;;;;;;;9.48;6.10;;;;;;;14.35;63.28;100943.63;1777182;79;21070;-58
2021/11/06 00:11:38;;;;;;;12.23;6.65;;;;;;;14.41;63.34;100943.61;1779702;78;21148;-59
2021/11/06 00:14:06;;;;;;;10.75;7.42;;;;;;;14.41;63.38;100939.63;1774289;78;21824;-59
2021/11/06 00:16:34;;;;;;;12.03;7.22;;;;;;;14.37;63.50;100948.30;1741687;78;21125;-58
2021/11/06 00:19:01;;;;;;;11.78;7.83;;;;;;;14.33;63.46;100950.88;1707832;80;21109;-59
2021/11/06 00:21:27;;;;;;;10.50;7.20;;;;;;;14.25;63.17;100944.91;1714293;81;21576;-59
2021/11/06 00:23:55;;;;;;;11.53;6.87;;;;;;;14.17;62.99;100943.45;1728617;81;21177;-58
2021/11/06 00:26:21;;;;;;;9.55;6.62;;;;;;;14.15;63.00;100952.47;1713648;83;21116;-58
2021/11/06 00:28:47;;;;;;;11.95;6.60;;;;;;;14.18;62.64;100953.04;1714209;83;21080;-58
2021/11/06 00:31:14;;;;;;;13.43;7.28;;;;;;;14.16;62.24;100943.08;1701602;82;21054;-58
2021/11/06 00:33:40;;;;;;;10.10;6.30;;;;;;;14.11;62.11;100950.58;1709208;82;21093;-58
2021/11/06 00:36:06;;;;;;;10.38;6.33;;;;;;;14.07;62.01;100950.47;1710712;82;21214;-58
2021/11/06 00:38:33;;;;;;;14.33;6.85;;;;;;;13.99;61.68;100947.67;1740192;80;21055;-58
2021/11/06 00:41:00;;;;;;;9.55;6.17;;;;;;;13.89;61.87;100964.31;1700627;82;21099;-59
2021/11/06 00:43:26;;;;;;;9.43;5.95;;;;;;;13.80;61.73;100969.08;1689450;82;21599;-59
2021/11/06 00:45:53;;;;;;;12.55;6.45;;;;;;;13.76;61.72;100966.31;1711398;81;21085;-59
2021/11/06 00:48:19;;;;;;;11.68;6.45;;;;;;;13.71;61.75;100971.98;1712281;81;21165;-57
2021/11/06 00:50:46;;;;;;;11.22;6.45;;;;;;;13.63;61.50;100977.56;1713898;81;21070;-57
2021/11/06 00:53:12;;;;;;;10.55;6.28;;;;;;;13.52;61.15;100982.44;1684940;82;21137;-59
2021/11/06 00:55:38;;;;;;;11.30;6.00;;;;;;;13.41;61.33;100981.98;1712483;81;21114;-59
2021/11/06 00:58:05;;;;;;;11.78;5.85;;;;;;;13.29;61.67;100973.72;1711780;81;21140;-58
2021/11/06 01:00:33;;;;;;;9.63;6.10;;;;;;;13.24;62.09;100989.13;1709317;82;21140;-58
2021/11/06 01:02:59;;;;;;;9.98;5.33;;;;;;;13.23;62.09;100997.55;1705811;83;21142;-58
2021/11/06 01:05:26;;;;;;;9.40;5.35;;;;;;;13.16;61.68;100995.02;1741097;80;21059;-58
2021/11/06 01:07:52;;;;;;;7.97;4.95;;;;;;;13.07;61.38;100998.42;1684575;82;21058;-58
2021/11/06 01:10:19;;;;;;;8.50;4.58;;;;;;;12.93;61.00;101005.66;1742206;82;21536;-58
2021/11/06 01:12:47;;;;;;;7.72;4.45;;;;;;;12.79;61.07;100992.70;1738229;81;21054;-58
2021/11/06 01:15:14;;;;;;;7.87;4.42;;;;;;;12.70;61.37;100978.43;1734965;80;21324;-58
2021/11/06 01:17:42;;;;;;;8.98;5.12;;;;;;;12.68;61.73;101004.13;1734864;81;21035;-58
2021/11/06 01:20:09;;;;;;;6.30;3.72;;;;;;;12.63;62.37;101022.96;1737870;81;22115;-58
2021/11/06 01:22:36;;;;;;;9.13;3.87;;;;;;;12.57;62.47;101027.39;1736605;81;21082;-59
2021/11/06 01:25:05;;;;;;;8.13;3.80;;;;;;;12.46;62.02;101032.69;1739969;81;21384;-59
2021/11/06 01:27:32;;;;;;;6.90;4.05;;;;;;;12.34;62.32;101023.92;1730651;80;21103;-59
2021/11/06 01:29:58;;;;;;;6.58;3.50;;;;;;;12.33;62.86;101022.23;1714906;81;21038;-59
2021/11/06 01:32:25;;;;;;;6.50;3.85;;;;;;;12.29;63.33;101024.77;1741573;81;20985;-59
2021/11/06 01:34:52;;;;;;;7.65;3.83;;;;;;;12.24;63.91;101028.23;1744001;80;21039;-59
2021/11/06 01:37:18;;;;;;;6.92;3.92;;;;;;;12.20;64.35;101028.09;1779473;80;21043;-58
2021/11/06 01:39:45;;;;;;;8.08;4.15;;;;;;;12.14;64.73;101027.23;1772282;80;21006;-59
2021/11/06 01:42:11;;;;;;;7.12;3.95;;;;;;;12.18;64.95;101028.20;1778810;80;21055;-58
2021/11/06 01:44:39;;;;;;;6.92;3.90;;;;;;;12.18;65.03;101026.89;1770574;80;21046;-59
2021/11/06 01:47:09;;;;;;;8.53;4.35;;;;;;;12.14;65.07;101042.60;1732005;80;21047;-58
2021/11/06 01:49:34;;;;;;;8.75;4.80;;;;;;;12.08;65.22;101052.29;1773570;79;21159;-58
2021/11/06 01:52:00;;;;;;;7.70;4.60;;;;;;;12.06;65.50;101055.05;1772577;78;21106;-58
2021/11/06 01:54:28;;;;;;;9.03;4.42;;;;;;;12.04;65.68;101054.81;1767342;78;21043;-58
2021/11/06 01:56:55;;;;;;;7.37;3.67;;;;;;;12.06;65.88;101047.13;1769787;79;21074;-59
2021/11/06 01:59:23;;;;;;;5.97;3.62;;;;;;;12.15;65.93;101062.73;1771488;78;21043;-59
2021/11/06 02:01:49;;;;;;;8.13;4.40;;;;;;;12.20;66.00;101063.70;1773952;79;21114;-59
2021/11/06 02:04:16;;;;;;;7.25;3.77;;;;;;;12.24;65.90;101075.73;1700204;80;21121;-59
2021/11/06 02:06:43;;;;;;;7.45;3.20;;;;;;;12.21;65.65;101075.95;1769315;79;21075;-59
2021/11/06 02:09:10;;;;;;;7.67;3.83;;;;;;;12.17;65.30;101081.08;1773990;78;21644;-58
2021/11/06 02:11:38;;;;;;;6.05;3.12;;;;;;;12.16;65.14;101076.78;1765662;78;21087;-59
2021/11/06 02:14:04;;;;;;;8.45;3.52;;;;;;;12.16;64.81;101093.94;1739443;79;21469;-58
2021/11/06 02:16:32;;;;;;;6.03;3.20;;;;;;;12.07;64.56;101097.63;1767553;79;21528;-58
2021/11/06 02:19:00;;;;;;;6.15;3.45;;;;;;;12.03;64.46;101105.88;1711471;82;21043;-58
2021/11/06 02:21:26;;;;;;;7.72;3.42;;;;;;;11.98;64.58;101102.73;1774799;78;21141;-59
2021/11/06 02:23:54;;;;;;;7.97;4.03;;;;;;;11.92;64.89;101113.28;1771057;78;21084;-58
2021/11/06 02:26:21;;;;;;;6.20;3.60;;;;;;;11.94;64.78;101117.95;1738606;80;21166;-58
2021/11/06 02:28:53;;;;;;;6.33;3.70;;;;;;;11.92;64.46;101123.83;1734877;79;21044;-58
2021/11/06 02:31:19;;;;;;;6.95;3.87;;;;;;;11.81;64.37;101136.44;1740937;80;21050;-58
2021/11/06 02:33:50;;;;;;;7.83;4.10;;;;;;;11.72;63.91;101127.89;1766954;79;21535;-58
2021/11/06 02:36:16;;;;;;;5.58;3.45;;;;;;;11.65;64.12;101145.09;1744787;80;21067;-58
2021/11/06 02:38:43;;;;;;;7.28;3.87;;;;;;;11.62;63.91;101160.66;1733524;80;21098;-58
2021/11/06 02:41:09;;;;;;;8.15;3.65;;;;;;;11.54;63.11;101161.69;1765941;79;21650;-58
2021/11/06 02:43:36;;;;;;;7.85;3.77;;;;;;;11.51;63.45;101171.12;1767393;79;21057;-58
2021/11/06 02:46:02;;;;;;;7.47;3.83;;;;;;;11.51;63.67;101186.94;1765451;79;22389;-59
2021/11/06 02:48:30;;;;;;;9.15;3.87;;;;;;;11.50;64.00;101186.59;1766531;79;21106;-58
2021/11/06 02:50:56;;;;;;;9.95;3.42;;;;;;;11.42;64.63;101189.77;1763831;79;21120;-58
2021/11/06 02:53:23;;;;;;;7.55;3.50;;;;;;;11.37;64.86;101198.95;1770538;79;21101;-58
2021/11/06 02:55:49;;;;;;;6.37;3.47;;;;;;;11.28;65.27;101198.65;1765093;79;21094;-59
2021/11/06 02:58:15;;;;;;;6.25;3.33;;;;;;;11.18;65.56;101210.78;1739693;79;21074;-57
2021/11/06 03:00:42;;;;;;;8.00;3.33;;;;;;;11.11;65.83;101219.58;1767329;79;21094;-58
2021/11/06 03:03:09;;;;;;;7.28;3.50;;;;;;;11.09;66.06;101223.25;1766557;79;21145;-60
2021/11/06 03:05:37;;;;;;;5.60;3.40;;;;;;;11.12;66.28;101217.78;1766500;79;21039;-59
2021/11/06 03:08:04;;;;;;;8.25;3.80;;;;;;;11.17;66.54;101201.18;1761854;79;21474;-59
2021/11/06 03:10:30;;;;;;;8.60;3.60;;;;;;;11.20;66.55;101202.77;1763114;79;21094;-59
2021/11/06 03:12:57;;;;;;;7.62;3.80;;;;;;;11.19;66.51;101203.22;1760548;80;21739;-58
2021/11/06 03:15:23;;;;;;;6.72;3.80;;;;;;;11.18;66.17;101192.34;1762000;80;21502;-59
2021/11/06 03:17:50;;;;;;;6.72;3.20;;;;;;;11.13;65.81;101189.19;1740646;79;21540;-59
2021/11/06 03:20:18;;;;;;;6.92;3.83;;;;;;;11.10;66.02;101200.76;1770619;79;21090;-58
2021/11/06 03:22:45;;;;;;;7.00;3.85;;;;;;;11.08;66.04;101198.72;1764677;79;21059;-59
2021/11/06 03:25:12;;;;;;;7.87;3.47;;;;;;;11.03;66.41;101201.27;1768232;79;21130;-58
2021/11/06 03:27:40;;;;;;;7.53;2.80;;;;;;;10.99;66.66;101199.33;1761625;79;21071;-58
2021/11/06 03:30:09;;;;;;;7.70;3.17;;;;;;;11.00;66.18;101192.30;1708354;82;21093;-60
2021/11/06 03:32:37;;;;;;;7.28;3.12;;;;;;;11.03;65.73;101196.02;1675395;83;21087;-59
2021/11/06 03:35:06;;;;;;;7.67;3.75;;;;;;;11.07;65.75;101204.91;1690492;83;21140;-59
2021/11/06 03:37:32;;;;;;;7.28;3.10;;;;;;;11.07;65.87;101206.72;1709873;82;21070;-60
2021/11/06 03:39:59;;;;;;;7.22;3.85;;;;;;;11.01;65.74;101193.52;1687853;83;21139;-58
2021/11/06 03:42:26;;;;;;;5.95;3.17;;;;;;;10.95;66.04;101184.70;1741949;80;21020;-59
2021/11/06 03:44:53;;;;;;;5.83;3.08;;;;;;;10.91;66.19;101186.71;1740190;80;21593;-59
2021/11/06 03:47:19;;;;;;;6.83;3.65;;;;;;;10.90;66.50;101186.81;1743426;80;21341;-58
2021/11/06 03:49:46;;;;;;;9.63;3.58;;;;;;;10.90;66.76;101185.02;1736807;80;21021;-58
2021/11/06 03:52:13;;;;;;;7.62;3.33;;;;;;;10.90;66.76;101174.97;1740606;80;21137;-58
2021/11/06 03:54:41;;;;;;;9.10;4.05;;;;;;;10.93;66.95;101174.28;1735865;80;21656;-59
2021/11/06 03:57:08;;;;;;;6.30;3.17;;;;;;;11.03;66.91;101174.94;1740995;80;21556;-59
2021/11/06 03:59:35;;;;;;;7.37;3.22;;;;;;;11.10;66.89;101173.59;1741891;80;21058;-59
2021/11/06 04:02:02;;;;;;;9.80;3.52;;;;;;;11.16;66.76;101187.62;1734187;80;21098;-59
2021/11/06 04:04:28;;;;;;;7.25;3.45;;;;;;;11.17;66.74;101190.64;1734405;80;21218;-59
2021/11/06 04:06:55;;;;;;;7.35;4.28;;;;;;;11.15;66.70;101195.18;1734157;80;20985;-59
2021/11/06 04:09:21;;;;;;;6.40;3.77;;;;;;;11.13;66.76;101195.77;1739213;80;21048;-58
2021/11/06 04:11:47;;;;;;;6.28;3.58;;;;;;;11.09;66.79;101198.23;1738917;80;21653;-58
2021/11/06 04:14:14;;;;;;;7.25;3.87;;;;;;;11.04;66.77;101193.27;1712053;82;21088;-57
2021/11/06 04:16:40;;;;;;;12.65;3.92;;;;;;;11.02;66.83;101193.86;1739622;80;21783;-58
2021/11/06 04:19:06;;;;;;;7.47;3.47;;;;;;;11.00;66.77;101198.88;1706308;80;21010;-58
2021/11/06 04:21:34;;;;;;;7.42;3.72;;;;;;;10.99;66.82;101187.97;1712496;80;21475;-58
2021/11/06 04:24:00;;;;;;;6.58;3.12;;;;;;;11.04;66.59;101188.48;1738515;80;21006;-58
2021/11/06 04:26:26;;;;;;;7.05;3.50;;;;;;;11.07;66.57;101179.89;1734301;80;21043;-59
2021/11/06 04:28:53;;;;;;;6.92;3.90;;;;;;;11.09;66.69;101177.99;1732954;80;21076;-58
2021/11/06 04:31:22;;;;;;;7.50;3.42;;;;;;;11.09;66.50;101188.53;1751865;79;21050;-58
2021/11/06 04:33:48;;;;;;;7.45;3.98;;;;;;;11.05;66.28;101191.02;1754757;79;21702;-57
2021/11/06 04:36:15;;;;;;;6.95;3.62;;;;;;;11.01;66.41;101175.53;1756201;79;21051;-59
2021/11/06 04:38:41;;;;;;;7.72;3.58;;;;;;;10.99;66.59;101186.65;1755348;79;21377;-58
2021/11/06 04:41:07;;;;;;;6.22;3.20;;;;;;;10.93;66.61;101188.76;1758143;79;21144;-59
2021/11/06 04:43:34;;;;;;;6.78;3.47;;;;;;;10.89;66.55;101189.06;1754497;79;21067;-59
2021/11/06 04:46:01;;;;;;;6.58;3.42;;;;;;;10.82;66.70;101196.54;1736299;79;21083;-58
2021/11/06 04:48:28;;;;;;;6.55;4.05;;;;;;;10.82;66.71;101196.54;1758566;79;22298;-58
2021/11/06 04:50:54;;;;;;;11.45;8.08;;;;;;;10.88;66.61;101192.66;1756494;79;21066;-58
2021/11/06 04:53:22;;;;;;;10.10;5.58;;;;;;;10.93;66.53;101185.29;1676399;83;21078;-57
2021/11/06 04:55:49;;;;;;;9.38;4.30;;;;;;;10.93;66.52;101178.23;1750996;80;21031;-57
2021/11/06 04:58:15;;;;;;;9.20;4.50;;;;;;;10.94;66.62;101173.80;1749605;80;21004;-59
2021/11/06 05:00:42;;;;;;;6.78;4.30;;;;;;;10.96;66.46;101196.45;1710776;82;21003;-59
2021/11/06 05:03:08;;;;;;;6.42;3.65;;;;;;;10.93;66.24;101231.38;1754344;79;21389;-58
2021/11/06 05:05:34;;;;;;;7.72;4.05;;;;;;;10.84;66.34;101220.97;1758464;79;21029;-59
2021/11/06 05:08:01;;;;;;;6.45;3.30;;;;;;;10.79;66.67;101195.42;1752226;79;21072;-59
2021/11/06 05:10:27;;;;;;;7.37;4.10;;;;;;;10.74;66.63;101202.80;1759448;80;21071;-59
2021/11/06 05:12:53;;;;;;;7.90;3.52;;;;;;;10.71;66.62;101209.61;1747841;79;21591;-60
2021/11/06 05:15:22;;;;;;;7.62;3.80;;;;;;;10.74;66.68;101218.59;1751865;79;21051;-60
2021/11/06 05:17:49;;;;;;;7.15;3.85;;;;;;;10.81;66.62;101213.30;1755769;79;21150;-59
2021/11/06 05:20:15;;;;;;;6.20;3.75;;;;;;;10.90;66.51;101215.78;1716403;80;21137;-58
2021/11/06 05:22:42;;;;;;;7.17;3.60;;;;;;;10.93;66.20;101219.04;1753096;79;21081;-60
2021/11/06 05:25:09;;;;;;;8.23;4.22;;;;;;;10.86;65.97;101220.86;1757610;79;21120;-57
2021/11/06 05:27:36;;;;;;;9.50;3.92;;;;;;;10.74;65.94;101234.38;1758522;79;21678;-58
2021/11/06 05:30:05;;;;;;;8.85;4.80;;;;;;;10.63;66.30;101238.23;1758578;79;21093;-58
2021/11/06 05:32:33;;;;;;;8.03;3.87;;;;;;;10.53;66.25;101230.93;1768718;79;21121;-58
2021/11/06 05:34:59;;;;;;;7.90;4.42;;;;;;;10.46;66.49;101242.81;1768683;80;21011;-58
2021/11/06 05:37:26;;;;;;;8.05;4.22;;;;;;;10.38;66.65;101241.16;1737739;79;21389;-57
2021/11/06 05:39:54;;;;;;;7.53;3.77;;;;;;;10.33;66.74;101243.25;1768971;79;21642;-60
2021/11/06 05:42:20;;;;;;;7.15;3.65;;;;;;;10.33;66.59;101243.25;1770541;79;21117;-58
2021/11/06 05:44:46;;;;;;;7.05;3.70;;;;;;;10.38;66.63;101238.53;1766427;79;22143;-59
2021/11/06 05:47:13;;;;;;;8.00;4.12;;;;;;;10.44;66.67;101246.48;1768598;79;21102;-59
2021/11/06 05:49:39;;;;;;;12.20;3.98;;;;;;;10.48;66.79;101244.86;1767091;79;21042;-60
2021/11/06 05:52:06;;;;;;;8.65;4.03;;;;;;;10.50;66.67;101248.72;1763276;79;21034;-59
2021/11/06 05:54:33;;;;;;;7.83;3.95;;;;;;;10.48;66.74;101242.23;1733451;79;21125;-64
2021/11/06 05:56:59;;;;;;;7.83;4.60;;;;;;;10.51;66.78;101243.84;1762069;79;22406;-59
2021/11/06 05:59:25;;;;;;;7.50;4.08;;;;;;;10.49;66.54;101247.88;1737400;79;21042;-59
2021/11/06 06:01:52;;;;;;;9.93;3.55;;;;;;;10.48;66.51;101251.45;1764170;79;21516;-59
2021/11/06 06:04:18;;;;;;;7.70;4.30;;;;;;;10.44;66.53;101249.11;1760301;79;21059;-59
2021/11/06 06:06:45;;;;;;;7.42;3.50;;;;;;;10.39;66.67;101254.69;1740467;79;22536;-59
2021/11/06 06:09:11;;;;;;;10.63;4.50;;;;;;;10.43;66.69;101255.33;1765868;79;21097;-59
2021/11/06 06:11:38;;;;;;;8.03;4.42;;;;;;;10.52;66.74;101256.03;1735943;79;21110;-62
2021/11/06 06:14:05;;;;;;;10.50;5.15;;;;;;;10.58;66.56;101269.62;1765120;79;22419;-59
2021/11/06 06:16:31;;;;;;;8.00;4.80;;;;;;;10.59;66.25;101271.33;1769082;79;21083;-61
2021/11/06 06:18:59;;;;;;;8.70;3.85;;;;;;;10.55;66.18;101274.25;1767191;79;21220;-60
2021/11/06 06:21:26;;;;;;;9.25;4.50;;;;;;;10.47;66.33;101264.22;1766927;79;21042;-59
2021/11/06 06:23:52;;;;;;;9.60;4.67;;;;;;;10.43;66.29;101276.38;1763262;79;21260;-59
2021/11/06 06:26:20;;;;;;;8.58;4.80;;;;;;;10.33;66.37;101278.28;1763977;79;21079;-58
2021/11/06 06:28:47;;;;;;;9.35;4.95;;;;;;;10.25;66.39;101281.01;1770260;80;21034;-58
2021/11/06 06:31:14;;;;;;;7.72;4.67;;;;;;;10.15;66.59;101278.12;1759879;79;23170;-59
2021/11/06 06:33:40;;;;;;;8.68;4.33;;;;;;;10.07;66.69;101277.31;1758784;80;21059;-58
2021/11/06 06:36:08;;;;;;;8.05;4.40;;;;;;;10.06;66.82;101278.23;1759825;79;21059;-60
2021/11/06 06:38:34;;;;;;;7.33;4.65;;;;;;;10.07;66.63;101283.02;1758420;79;22252;-58
2021/11/06 06:41:01;;;;;;;7.70;4.28;;;;;;;10.08;66.56;101284.23;1753248;79;21039;-58
2021/11/06 06:43:28;;;;;;;8.90;5.17;;;;;;;10.09;66.69;101289.05;1753181;79;21133;-59
2021/11/06 06:45:55;;;;;;;10.00;5.15;;;;;;;10.09;66.89;101288.56;1760071;79;21093;-59
2021/11/06 06:48:21;;;;;;;8.40;4.22;;;;;;;10.08;66.90;101286.86;1742850;79;21400;-60
2021/11/06 06:50:49;;;;;;;8.78;4.85;;;;;;;10.06;66.67;101297.96;1736884;79;21202;-60
2021/11/06 06:53:17;;;;;;;8.00;4.72;;;;;;;10.01;66.69;101296.09;1756334;79;21122;-59
2021/11/06 06:55:44;;;;;;;8.80;5.20;;;;;;;9.99;66.97;101300.61;1726545;81;21141;-61
2021/11/06 06:58:11;;;;;;;7.30;3.77;;;;;;;9.95;66.40;101306.54;1755388;79;21075;-59
2021/11/06 07:00:38;;;;;;;11.78;4.08;;;;;;;9.97;66.44;101316.92;1758870;79;21273;-59
2021/11/06 07:03:04;;;;;;;8.33;4.30;;;;;;;10.06;66.36;101327.36;1733731;80;21130;-60
2021/11/06 07:05:31;;;;;;;7.47;4.65;;;;;;;10.07;66.39;101319.38;1759420;79;21061;-61
2021/11/06 07:07:58;;;;;;;7.85;4.15;;;;;;;10.06;66.34;101328.20;1757013;79;21150;-60
2021/11/06 07:10:25;;;;;;;7.60;4.05;;;;;;;10.04;66.16;101324.34;1760792;79;21107;-60
2021/11/06 07:12:52;;;;;;;10.50;5.10;;;;;;;10.01;66.16;101316.65;1721983;81;21035;-60
2021/11/06 07:15:20;;;;;;;11.15;5.72;;;;;;;10.01;66.07;101321.91;1756900;79;21085;-60
2021/11/06 07:17:47;;;;;;;10.05;4.90;;;;;;;10.01;66.06;101317.12;1761638;79;21102;-59
2021/11/06 07:20:15;;;;;;;7.70;5.20;;;;;;;10.06;65.97;101318.16;1747164;79;21221;-60
2021/11/06 07:22:42;;;;;;;9.78;5.90;;;;;;;10.16;65.43;101317.47;1759922;79;21785;-60
2021/11/06 07:25:09;;;;;;;11.78;6.62;;;;;;;10.21;65.22;101302.72;1757874;79;21023;-59
2021/11/06 07:27:36;;;;;;;8.65;5.65;;;;;;;10.23;65.06;101298.20;1741655;80;21042;-59
2021/11/06 07:30:05;;;;;;;10.60;5.53;;;;;;;10.26;65.22;101301.95;1762014;79;21050;-60
2021/11/06 07:32:32;;;;;;;7.97;4.37;;;;;;;10.34;64.94;101301.02;1763265;79;21121;-60
2021/11/06 07:34:58;;;;;;;8.98;5.30;;;;;;;10.37;63.60;101309.17;1759725;79;21800;-59
2021/11/06 07:37:24;;;;;;;8.58;4.97;;;;;;;10.37;63.83;101308.72;1760666;79;21097;-60
2021/11/06 07:39:51;;;;;;;9.05;4.70;;;;;;;10.38;63.23;101310.88;1762129;79;21853;-59
2021/11/06 07:42:17;;;;;;;13.25;4.92;;;;;;;10.39;63.94;101319.98;1734390;80;21077;-59
2021/11/06 07:44:44;;;;;;;8.05;4.35;;;;;;;10.45;63.96;101329.26;1760325;80;21203;-60
2021/11/06 07:47:10;;;;;;;9.20;4.72;;;;;;;10.57;62.91;101336.38;1761355;79;21468;-59
2021/11/06 07:49:37;;;;;;;8.95;5.28;;;;;;;10.62;62.37;101331.28;1759232;79;21047;-59
2021/11/06 07:52:04;;;;;;;8.50;4.65;;;;;;;10.60;61.68;101343.22;1763815;79;21858;-59
2021/11/06 07:54:31;;;;;;;10.60;4.55;;;;;;;10.57;61.55;101336.38;1760674;79;20996;-59
2021/11/06 07:56:58;;;;;;;8.85;5.35;;;;;;;10.56;62.12;101345.69;1757400;79;21164;-59
2021/11/06 07:59:25;;;;;;;9.58;4.87;;;;;;;10.55;61.74;101342.67;1753976;79;21047;-60
2021/11/06 08:01:52;;;;;;;7.47;4.78;;;;;;;10.55;61.87;101343.52;1760002;79;21106;-60
2021/11/06 08:04:18;;;;;;;7.85;4.83;;;;;;;10.59;61.77;101342.39;1759120;79;21578;-59
2021/11/06 08:06:45;;;;;;;7.42;4.20;;;;;;;10.66;61.44;101346.78;1699685;82;21153;-59
2021/11/06 08:09:13;;;;;;;7.28;4.03;;;;;;;10.73;61.39;101349.86;1765228;79;22377;-59
2021/11/06 08:11:40;;;;;;;6.62;3.45;;;;;;;10.76;61.50;101339.13;1758696;79;21019;-60
2021/11/06 08:14:07;;;;;;;6.90;4.37;;;;;;;10.84;61.08;101346.03;1760797;79;21068;-57
2021/11/06 08:16:33;;;;;;;8.10;4.10;;;;;;;10.98;59.14;101355.67;1737763;79;21035;-58
2021/11/06 08:19:00;;;;;;;11.25;4.85;;;;;;;11.02;59.28;101345.77;1761368;79;21027;-60
2021/11/06 08:21:26;;;;;;;7.37;4.80;;;;;;;11.01;59.36;101350.66;1741557;79;21027;-58
2021/11/06 08:23:55;;;;;;;9.05;5.28;;;;;;;11.02;59.36;101347.92;1757793;79;21495;-58
2021/11/06 08:26:21;;;;;;;7.87;4.17;;;;;;;11.06;59.18;101361.28;1757648;79;21039;-58
2021/11/06 08:28:48;;;;;;;8.30;4.58;;;;;;;11.06;58.48;101357.78;1755160;79;21082;-58
2021/11/06 08:31:14;;;;;;;8.23;4.65;;;;;;;11.03;58.85;101357.98;1737834;79;21142;-58
2021/11/06 08:33:40;;;;;;;9.23;4.40;;;;;;;11.02;58.51;101365.53;1751317;80;23301;-58
2021/11/06 08:36:07;;;;;;;7.08;4.05;;;;;;;11.01;57.77;101366.01;1734722;81;21040;-58
2021/11/06 08:38:34;;;;;;;7.65;3.95;;;;;;;10.93;57.29;101387.56;1736465;80;21043;-58
2021/11/06 08:41:00;;;;;;;8.70;4.40;;;;;;;10.92;57.38;101377.97;1746191;80;21052;-60
2021/11/06 08:43:27;;;;;;;8.25;4.67;;;;;;;10.88;56.89;101370.39;1731596;80;21079;-60
2021/11/06 08:45:54;;;;;;;8.40;4.22;;;;;;;10.87;56.51;101355.05;1718610;82;21152;-60
2021/11/06 08:48:21;;;;;;;9.05;4.30;;;;;;;10.87;56.33;101361.63;1758253;80;22138;-61
2021/11/06 08:50:48;;;;;;;8.60;4.50;;;;;;;10.87;57.02;101387.13;1757088;79;21050;-58
2021/11/06 08:53:14;;;;;;;7.45;4.00;;;;;;;10.87;56.70;101376.11;1756179;79;21085;-59
2021/11/06 08:55:40;;;;;;;6.62;4.33;;;;;;;10.90;56.59;101362.75;1739443;79;21094;-59
2021/11/06 08:58:08;;;;;;;8.15;4.30;;;;;;;10.96;56.93;101362.36;1760230;79;21938;-60
2021/11/06 09:00:42;;;;;;;8.68;4.90;;;;;;;11.03;55.87;101356.21;1755734;79;21896;-60
2021/11/06 09:03:14;;;;;;;7.78;4.50;;;;;;;11.07;55.79;101351.09;1759248;79;21173;-58
2021/11/06 09:05:40;;;;;;;6.65;3.67;;;;;;;11.09;55.22;101348.36;1761776;79;21042;-59
2021/11/06 09:08:07;;;;;;;8.45;4.60;;;;;;;11.10;55.66;101343.48;1757757;79;21724;-59
2021/11/06 09:10:35;;;;;;;6.42;3.47;;;;;;;11.13;54.80;101345.91;1759070;79;21097;-59
2021/11/06 09:13:01;;;;;;;6.42;3.02;;;;;;;11.19;55.29;101345.95;1757834;79;20953;-60
2021/11/06 09:15:28;;;;;;;8.33;3.62;;;;;;;11.25;55.28;101342.44;1748790;80;21654;-60
2021/11/06 09:17:54;;;;;;;6.45;3.47;;;;;;;11.34;54.97;101352.83;1735096;80;21055;-59
2021/11/06 09:20:21;;;;;;;7.97;4.15;;;;;;;11.39;53.92;101341.98;1733488;79;21664;-59
2021/11/06 09:22:48;;;;;;;7.58;3.90;;;;;;;11.41;53.18;101334.80;1754271;79;21138;-59
2021/11/06 09:25:14;;;;;;;6.20;3.72;;;;;;;11.46;52.53;101343.23;1758411;79;21341;-59
2021/11/06 09:27:42;;;;;;;8.65;4.67;;;;;;;11.45;51.93;101338.45;1762230;79;21047;-57
2021/11/06 09:30:09;;;;;;;7.17;3.83;;;;;;;11.45;52.40;101338.45;1753412;79;21011;-57
2021/11/06 09:32:37;;;;;;;6.45;3.47;;;;;;;11.45;53.02;101338.94;1768648;79;21610;-59
2021/11/06 09:35:06;;;;;;;6.50;3.17;;;;;;;11.50;52.95;101340.78;1763270;79;21936;-59
2021/11/06 09:37:33;;;;;;;6.28;3.12;;;;;;;11.55;51.46;101345.26;1755839;79;21141;-58
2021/11/06 09:39:59;;;;;;;6.70;3.65;;;;;;;11.55;51.09;101343.94;1767347;79;21694;-58
2021/11/06 09:42:26;;;;;;;8.13;3.27;;;;;;;11.54;51.46;101342.23;1745556;80;21044;-58
2021/11/06 09:44:53;;;;;;;7.55;3.90;;;;;;;11.49;51.18;101337.77;1774197;79;22188;-59
2021/11/06 09:47:20;;;;;;;6.30;3.77;;;;;;;11.42;50.85;101337.82;1774510;79;21109;-59
2021/11/06 09:49:47;;;;;;;6.75;3.90;;;;;;;11.36;51.11;101323.73;1726719;81;22355;-59
2021/11/06 09:52:13;;;;;;;7.00;3.75;;;;;;;11.33;51.59;101323.45;1764905;79;21110;-60
2021/11/06 09:54:40;;;;;;;6.25;3.33;;;;;;;11.32;52.02;101330.53;1768089;79;21106;-60
2021/11/06 09:57:06;;;;;;;7.08;3.52;;;;;;;11.37;51.99;101326.75;1743578;80;21586;-59
2021/11/06 09:59:34;;;;;;;6.10;3.10;;;;;;;11.44;52.24;101326.69;1769901;79;23218;-59
2021/11/06 10:02:01;;;;;;;5.95;3.60;;;;;;;11.52;50.78;101319.11;1763437;79;21065;-59
2021/11/06 10:04:30;;;;;;;6.28;3.37;;;;;;;11.59;51.18;101330.06;1745124;80;21504;-59
2021/11/06 10:06:59;;;;;;;6.50;3.62;;;;;;;11.60;50.57;101337.88;1710064;82;21113;-59
2021/11/06 10:09:25;;;;;;;6.72;3.70;;;;;;;11.64;51.08;101327.47;1766038;79;21034;-58
2021/11/06 10:11:55;;;;;;;8.65;3.72;;;;;;;11.71;50.83;101319.49;1759755;79;21145;-58
2021/11/06 10:14:26;;;;;;;9.85;4.50;;;;;;;11.82;50.22;101324.52;1757810;79;21114;-58
2021/11/06 10:16:58;;;;;;;11.60;4.33;;;;;;;11.84;50.37;101320.80;1771192;79;21054;-58
2021/11/06 10:19:32;;;;;;;7.62;4.10;;;;;;;11.89;50.93;101314.73;1757316;79;21590;-58
2021/11/06 10:22:18;;;;;;;5.53;3.25;;;;;;;11.96;51.13;101338.08;1773278;79;21083;-58
2021/11/06 10:24:48;;;;;;;6.83;3.45;;;;;;;12.01;51.26;101323.59;1775068;79;21709;-58
2021/11/06 10:27:23;;;;;;;6.78;3.30;;;;;;;12.11;50.86;101313.72;1745311;80;21038;-58
2021/11/06 10:30:09;;;;;;;4.65;2.27;;;;;;;12.23;49.38;101312.83;1765351;79;21046;-58
2021/11/06 10:32:36;;;;;;;4.72;2.52;;;;;;;12.29;49.23;101319.45;1760422;79;21126;-58
2021/11/06 10:35:23;;;;;;;8.13;3.42;;;;;;;12.30;48.69;101314.06;1756703;79;21114;-58
2021/11/06 10:38:01;;;;;;;6.67;2.55;;;;;;;12.28;48.39;101319.10;1763797;79;21080;-57
2021/11/06 10:40:31;;;;;;;4.67;2.40;;;;;;;12.21;48.50;101310.78;1744132;79;21157;-59
2021/11/06 10:43:00;;;;;;;5.78;2.62;;;;;;;12.14;48.81;101312.16;1760366;79;21839;-59
2021/11/06 10:45:32;;;;;;;5.17;2.52;;;;;;;12.06;49.04;101305.64;1766444;79;21066;-58
2021/11/06 10:48:08;;;;;;;4.47;2.30;;;;;;;11.96;49.08;101308.58;1696674;82;21055;-58
2021/11/06 10:51:03;;;;;;;8.23;2.77;;;;;;;11.85;49.64;101317.68;1696497;82;21323;-58
2021/11/06 10:53:50;;;;;;;5.75;3.10;;;;;;;11.76;50.15;101303.84;1755629;79;21110;-58
2021/11/06 10:56:41;;;;;;;5.40;2.67;;;;;;;11.66;50.28;101304.47;1755875;79;21995;-58
2021/11/06 10:59:12;;;;;;;5.28;2.80;;;;;;;11.61;50.32;101305.27;1734319;79;21126;-59
2021/11/06 11:01:42;;;;;;;6.50;2.50;;;;;;;11.55;49.94;101309.67;1752867;79;21028;-59
2021/11/06 11:04:13;;;;;;;5.85;3.30;;;;;;;11.47;50.22;101309.36;1761648;79;23202;-59
2021/11/06 11:06:49;;;;;;;4.87;2.40;;;;;;;11.41;50.72;101311.92;1736233;79;21592;-56
2021/11/06 11:09:27;;;;;;;6.58;2.77;;;;;;;11.39;50.64;101318.27;1752565;79;21015;-60
2021/11/06 11:12:00;;;;;;;6.65;2.65;;;;;;;11.36;50.75;101309.24;1759136;79;21445;-58
2021/11/06 11:14:29;;;;;;;6.60;2.92;;;;;;;11.34;50.97;101309.34;1757380;79;21035;-58
2021/11/06 11:17:03;;;;;;;5.55;2.67;;;;;;;11.36;50.90;101307.92;1739853;80;21039;-60
2021/11/06 11:19:44;;;;;;;4.40;2.27;;;;;;;11.39;50.62;101312.99;1763362;79;21083;-61
2021/11/06 11:22:23;;;;;;;6.55;3.20;;;;;;;11.38;50.99;101309.97;1764101;79;21079;-60
2021/11/06 11:24:50;;;;;;;5.55;2.67;;;;;;;11.40;50.92;101303.66;1754855;79;21110;-60
2021/11/06 11:27:17;;;;;;;6.65;2.60;;;;;;;11.51;50.60;101300.27;1760421;79;21102;-59